sensor_id;sensor_type;location;lat;lon;timestamp;P1;durP1;ratioP1;P2;durP2;ratioP2
78995;SDS011;68401;47.192;-1.552;2023-05-07T00:01:49;10.48;;;4.25;;
78995;SDS011;68401;47.192;-1.552;2023-05-07T00:04:15;9.50;;;4.22;;
78995;SDS011;68401;47.192;-1.552;2023-05-07T00:06:40;9.95;;;4.78;;
78995;SDS011;68401;47.192;-1.552;2023-05-07T00:09:06;12.60;;;5.38;;
78995;SDS011;68401;47.192;-1.552;2023-05-07T00:11:32;12.85;;;4.68;;
78995;SDS011;68401;47.192;-1.552;2023-05-07T00:13:58;12.38;;;5.32;;
78995;SDS011;68401;47.192;-1.552;2023-05-07T00:16:23;12.50;;;4.35;;
78995;SDS011;68401;47.192;-1.552;2023-05-07T00:18:49;8.38;;;4.50;;
78995;SDS011;68401;47.192;-1.552;2023-05-07T00:21:14;16.25;;;5.03;;
78995;SDS011;68401;47.192;-1.552;2023-05-07T00:23:40;12.40;;;5.45;;
78995;SDS011;68401;47.192;-1.552;2023-05-07T00:26:05;11.07;;;5.53;;
78995;SDS011;68401;47.192;-1.552;2023-05-07T00:28:31;12.35;;;4.38;;
78995;SDS011;68401;47.192;-1.552;2023-05-07T00:30:56;9.98;;;4.63;;
78995;SDS011;68401;47.192;-1.552;2023-05-07T00:33:22;12.88;;;4.60;;
78995;SDS011;68401;47.192;-1.552;2023-05-07T00:35:48;15.57;;;5.72;;
78995;SDS011;68401;47.192;-1.552;2023-05-07T00:38:13;16.05;;;5.32;;
78995;SDS011;68401;47.192;-1.552;2023-05-07T00:40:39;14.68;;;4.80;;
78995;SDS011;68401;47.192;-1.552;2023-05-07T00:43:04;11.65;;;4.05;;
78995;SDS011;68401;47.192;-1.552;2023-05-07T00:45:30;15.35;;;5.72;;
78995;SDS011;68401;47.192;-1.552;2023-05-07T00:47:56;13.25;;;4.93;;
78995;SDS011;68401;47.192;-1.552;2023-05-07T00:50:23;10.70;;;4.93;;
78995;SDS011;68401;47.192;-1.552;2023-05-07T00:52:48;10.10;;;4.75;;
78995;SDS011;68401;47.192;-1.552;2023-05-07T00:55:14;14.15;;;4.93;;
78995;SDS011;68401;47.192;-1.552;2023-05-07T00:57:40;14.32;;;4.70;;
78995;SDS011;68401;47.192;-1.552;2023-05-07T01:00:06;12.27;;;4.43;;
78995;SDS011;68401;47.192;-1.552;2023-05-07T01:02:36;10.88;;;4.65;;
78995;SDS011;68401;47.192;-1.552;2023-05-07T01:05:02;9.88;;;4.75;;
78995;SDS011;68401;47.192;-1.552;2023-05-07T01:07:29;16.63;;;5.32;;
78995;SDS011;68401;47.192;-1.552;2023-05-07T01:09:55;9.82;;;4.32;;
78995;SDS011;68401;47.192;-1.552;2023-05-07T01:12:22;8.82;;;4.80;;
78995;SDS011;68401;47.192;-1.552;2023-05-07T01:14:47;12.52;;;5.25;;
78995;SDS011;68401;47.192;-1.552;2023-05-07T01:17:15;13.15;;;4.90;;
78995;SDS011;68401;47.192;-1.552;2023-05-07T01:19:40;6.90;;;4.00;;
78995;SDS011;68401;47.192;-1.552;2023-05-07T01:22:09;10.82;;;4.47;;
78995;SDS011;68401;47.192;-1.552;2023-05-07T01:24:36;9.30;;;3.78;;
78995;SDS011;68401;47.192;-1.552;2023-05-07T01:27:03;8.05;;;4.07;;
78995;SDS011;68401;47.192;-1.552;2023-05-07T01:29:28;12.43;;;4.18;;
78995;SDS011;68401;47.192;-1.552;2023-05-07T01:31:54;12.57;;;4.20;;
78995;SDS011;68401;47.192;-1.552;2023-05-07T01:34:21;10.57;;;3.55;;
78995;SDS011;68401;47.192;-1.552;2023-05-07T01:36:47;9.65;;;3.80;;
78995;SDS011;68401;47.192;-1.552;2023-05-07T01:39:13;9.40;;;3.70;;
78995;SDS011;68401;47.192;-1.552;2023-05-07T01:41:38;10.68;;;3.58;;
78995;SDS011;68401;47.192;-1.552;2023-05-07T01:44:04;8.60;;;2.92;;
78995;SDS011;68401;47.192;-1.552;2023-05-07T01:46:31;9.35;;;3.50;;
78995;SDS011;68401;47.192;-1.552;2023-05-07T01:48:57;6.95;;;2.92;;
78995;SDS011;68401;47.192;-1.552;2023-05-07T01:51:23;9.05;;;3.42;;
78995;SDS011;68401;47.192;-1.552;2023-05-07T01:53:48;11.50;;;4.13;;
78995;SDS011;68401;47.192;-1.552;2023-05-07T01:56:16;7.88;;;3.45;;
78995;SDS011;68401;47.192;-1.552;2023-05-07T01:58:44;7.72;;;3.42;;
78995;SDS011;68401;47.192;-1.552;2023-05-07T02:01:11;11.90;;;4.20;;
78995;SDS011;68401;47.192;-1.552;2023-05-07T02:03:36;8.73;;;3.85;;
78995;SDS011;68401;47.192;-1.552;2023-05-07T02:06:02;8.68;;;3.13;;
78995;SDS011;68401;47.192;-1.552;2023-05-07T02:08:27;7.03;;;2.70;;
78995;SDS011;68401;47.192;-1.552;2023-05-07T02:10:53;10.07;;;3.90;;
78995;SDS011;68401;47.192;-1.552;2023-05-07T02:13:19;6.88;;;2.95;;
78995;SDS011;68401;47.192;-1.552;2023-05-07T02:15:45;6.55;;;2.58;;
78995;SDS011;68401;47.192;-1.552;2023-05-07T02:18:14;5.88;;;2.30;;
78995;SDS011;68401;47.192;-1.552;2023-05-07T02:20:40;4.53;;;2.30;;
78995;SDS011;68401;47.192;-1.552;2023-05-07T02:23:06;5.20;;;2.33;;
78995;SDS011;68401;47.192;-1.552;2023-05-07T02:25:31;5.78;;;2.05;;
78995;SDS011;68401;47.192;-1.552;2023-05-07T02:27:57;2.78;;;1.92;;
78995;SDS011;68401;47.192;-1.552;2023-05-07T02:30:22;4.45;;;2.95;;
78995;SDS011;68401;47.192;-1.552;2023-05-07T02:32:48;3.95;;;2.28;;
78995;SDS011;68401;47.192;-1.552;2023-05-07T02:35:14;5.32;;;2.08;;
78995;SDS011;68401;47.192;-1.552;2023-05-07T02:37:39;3.65;;;1.90;;
78995;SDS011;68401;47.192;-1.552;2023-05-07T02:40:05;5.30;;;2.30;;
78995;SDS011;68401;47.192;-1.552;2023-05-07T02:42:31;3.17;;;1.92;;
78995;SDS011;68401;47.192;-1.552;2023-05-07T02:44:56;4.15;;;2.22;;
78995;SDS011;68401;47.192;-1.552;2023-05-07T02:47:22;4.22;;;2.10;;
78995;SDS011;68401;47.192;-1.552;2023-05-07T02:49:47;4.13;;;2.20;;
78995;SDS011;68401;47.192;-1.552;2023-05-07T02:52:13;3.63;;;1.83;;
78995;SDS011;68401;47.192;-1.552;2023-05-07T02:54:38;4.82;;;2.08;;
78995;SDS011;68401;47.192;-1.552;2023-05-07T02:57:03;4.25;;;1.90;;
78995;SDS011;68401;47.192;-1.552;2023-05-07T02:59:29;5.63;;;2.60;;
78995;SDS011;68401;47.192;-1.552;2023-05-07T03:01:55;6.15;;;2.67;;
78995;SDS011;68401;47.192;-1.552;2023-05-07T03:04:20;5.93;;;2.67;;
78995;SDS011;68401;47.192;-1.552;2023-05-07T03:06:46;6.85;;;3.13;;
78995;SDS011;68401;47.192;-1.552;2023-05-07T03:09:11;5.28;;;2.58;;
78995;SDS011;68401;47.192;-1.552;2023-05-07T03:11:37;5.20;;;2.60;;
78995;SDS011;68401;47.192;-1.552;2023-05-07T03:14:02;5.47;;;3.03;;
78995;SDS011;68401;47.192;-1.552;2023-05-07T03:16:28;6.55;;;2.83;;
78995;SDS011;68401;47.192;-1.552;2023-05-07T03:18:53;6.47;;;3.00;;
78995;SDS011;68401;47.192;-1.552;2023-05-07T03:21:19;9.25;;;3.42;;
78995;SDS011;68401;47.192;-1.552;2023-05-07T03:23:44;5.25;;;2.67;;
78995;SDS011;68401;47.192;-1.552;2023-05-07T03:26:10;8.75;;;3.92;;
78995;SDS011;68401;47.192;-1.552;2023-05-07T03:28:36;6.65;;;2.63;;
78995;SDS011;68401;47.192;-1.552;2023-05-07T03:31:02;6.07;;;3.13;;
78995;SDS011;68401;47.192;-1.552;2023-05-07T03:33:27;6.07;;;2.78;;
78995;SDS011;68401;47.192;-1.552;2023-05-07T03:35:53;6.95;;;2.53;;
78995;SDS011;68401;47.192;-1.552;2023-05-07T03:38:18;8.57;;;2.95;;
78995;SDS011;68401;47.192;-1.552;2023-05-07T03:40:43;8.18;;;3.20;;
78995;SDS011;68401;47.192;-1.552;2023-05-07T03:43:09;8.85;;;3.45;;
78995;SDS011;68401;47.192;-1.552;2023-05-07T03:45:35;9.07;;;3.10;;
78995;SDS011;68401;47.192;-1.552;2023-05-07T03:48:00;12.65;;;3.92;;
78995;SDS011;68401;47.192;-1.552;2023-05-07T03:50:26;7.72;;;3.88;;
78995;SDS011;68401;47.192;-1.552;2023-05-07T03:52:51;7.60;;;3.60;;
78995;SDS011;68401;47.192;-1.552;2023-05-07T03:55:16;8.55;;;3.25;;
78995;SDS011;68401;47.192;-1.552;2023-05-07T03:57:42;8.02;;;3.55;;
78995;SDS011;68401;47.192;-1.552;2023-05-07T04:00:08;9.93;;;3.50;;
78995;SDS011;68401;47.192;-1.552;2023-05-07T04:02:34;9.70;;;4.20;;
78995;SDS011;68401;47.192;-1.552;2023-05-07T04:04:59;8.38;;;3.22;;
78995;SDS011;68401;47.192;-1.552;2023-05-07T04:07:25;8.02;;;3.28;;
78995;SDS011;68401;47.192;-1.552;2023-05-07T04:09:50;8.45;;;3.17;;
78995;SDS011;68401;47.192;-1.552;2023-05-07T04:12:16;10.35;;;3.90;;
78995;SDS011;68401;47.192;-1.552;2023-05-07T04:14:41;8.63;;;3.70;;
78995;SDS011;68401;47.192;-1.552;2023-05-07T04:17:07;8.30;;;3.78;;
78995;SDS011;68401;47.192;-1.552;2023-05-07T04:19:34;10.82;;;3.90;;
78995;SDS011;68401;47.192;-1.552;2023-05-07T04:22:00;7.00;;;3.30;;
78995;SDS011;68401;47.192;-1.552;2023-05-07T04:24:25;8.00;;;3.50;;
78995;SDS011;68401;47.192;-1.552;2023-05-07T04:26:51;12.95;;;4.30;;
78995;SDS011;68401;47.192;-1.552;2023-05-07T04:29:17;15.00;;;5.10;;
78995;SDS011;68401;47.192;-1.552;2023-05-07T04:31:43;8.25;;;3.65;;
78995;SDS011;68401;47.192;-1.552;2023-05-07T04:34:09;11.00;;;3.95;;
78995;SDS011;68401;47.192;-1.552;2023-05-07T04:36:36;9.30;;;5.03;;
78995;SDS011;68401;47.192;-1.552;2023-05-07T04:39:03;11.88;;;4.30;;
78995;SDS011;68401;47.192;-1.552;2023-05-07T04:41:28;9.57;;;4.75;;
78995;SDS011;68401;47.192;-1.552;2023-05-07T04:43:54;9.73;;;3.85;;
78995;SDS011;68401;47.192;-1.552;2023-05-07T04:46:20;12.93;;;5.03;;
78995;SDS011;68401;47.192;-1.552;2023-05-07T04:48:45;6.88;;;4.38;;
78995;SDS011;68401;47.192;-1.552;2023-05-07T04:51:11;10.95;;;4.13;;
78995;SDS011;68401;47.192;-1.552;2023-05-07T04:53:37;7.25;;;3.50;;
78995;SDS011;68401;47.192;-1.552;2023-05-07T04:56:03;6.65;;;3.25;;
78995;SDS011;68401;47.192;-1.552;2023-05-07T04:58:28;15.07;;;4.00;;
78995;SDS011;68401;47.192;-1.552;2023-05-07T05:00:56;6.72;;;3.70;;
78995;SDS011;68401;47.192;-1.552;2023-05-07T05:03:22;10.15;;;3.70;;
78995;SDS011;68401;47.192;-1.552;2023-05-07T05:05:51;9.88;;;3.75;;
78995;SDS011;68401;47.192;-1.552;2023-05-07T05:08:17;11.18;;;3.97;;
78995;SDS011;68401;47.192;-1.552;2023-05-07T05:10:43;10.40;;;3.28;;
78995;SDS011;68401;47.192;-1.552;2023-05-07T05:13:09;9.95;;;4.30;;
78995;SDS011;68401;47.192;-1.552;2023-05-07T05:15:35;9.55;;;4.57;;
78995;SDS011;68401;47.192;-1.552;2023-05-07T05:18:00;12.68;;;4.22;;
78995;SDS011;68401;47.192;-1.552;2023-05-07T05:20:26;10.60;;;3.90;;
78995;SDS011;68401;47.192;-1.552;2023-05-07T05:22:51;9.23;;;3.30;;
78995;SDS011;68401;47.192;-1.552;2023-05-07T05:25:17;8.27;;;3.05;;
78995;SDS011;68401;47.192;-1.552;2023-05-07T05:27:42;7.57;;;3.58;;
78995;SDS011;68401;47.192;-1.552;2023-05-07T05:30:08;10.48;;;4.28;;
78995;SDS011;68401;47.192;-1.552;2023-05-07T05:32:34;8.23;;;3.60;;
78995;SDS011;68401;47.192;-1.552;2023-05-07T05:34:59;10.30;;;3.70;;
78995;SDS011;68401;47.192;-1.552;2023-05-07T05:37:24;8.82;;;3.80;;
78995;SDS011;68401;47.192;-1.552;2023-05-07T05:39:50;7.10;;;3.63;;
78995;SDS011;68401;47.192;-1.552;2023-05-07T05:42:16;9.23;;;3.28;;
78995;SDS011;68401;47.192;-1.552;2023-05-07T05:44:41;6.88;;;3.30;;
78995;SDS011;68401;47.192;-1.552;2023-05-07T05:47:06;10.15;;;3.33;;
78995;SDS011;68401;47.192;-1.552;2023-05-07T05:49:32;10.60;;;3.53;;
78995;SDS011;68401;47.192;-1.552;2023-05-07T05:51:57;8.15;;;3.45;;
78995;SDS011;68401;47.192;-1.552;2023-05-07T05:54:23;10.57;;;3.53;;
78995;SDS011;68401;47.192;-1.552;2023-05-07T05:56:48;10.35;;;3.55;;
78995;SDS011;68401;47.192;-1.552;2023-05-07T05:59:14;10.60;;;3.55;;
78995;SDS011;68401;47.192;-1.552;2023-05-07T06:01:39;7.68;;;2.90;;
78995;SDS011;68401;47.192;-1.552;2023-05-07T06:04:05;7.38;;;3.63;;
78995;SDS011;68401;47.192;-1.552;2023-05-07T06:06:30;6.75;;;3.10;;
78995;SDS011;68401;47.192;-1.552;2023-05-07T06:08:56;9.63;;;3.63;;
78995;SDS011;68401;47.192;-1.552;2023-05-07T06:11:22;8.82;;;3.30;;
78995;SDS011;68401;47.192;-1.552;2023-05-07T06:13:48;7.40;;;2.97;;
78995;SDS011;68401;47.192;-1.552;2023-05-07T06:16:13;6.25;;;2.65;;
78995;SDS011;68401;47.192;-1.552;2023-05-07T06:18:40;5.78;;;2.67;;
78995;SDS011;68401;47.192;-1.552;2023-05-07T06:21:05;6.10;;;2.63;;
78995;SDS011;68401;47.192;-1.552;2023-05-07T06:23:30;4.88;;;2.75;;
78995;SDS011;68401;47.192;-1.552;2023-05-07T06:25:56;9.75;;;3.03;;
78995;SDS011;68401;47.192;-1.552;2023-05-07T06:28:21;6.15;;;2.55;;
78995;SDS011;68401;47.192;-1.552;2023-05-07T06:30:47;8.88;;;3.13;;
78995;SDS011;68401;47.192;-1.552;2023-05-07T06:33:14;5.32;;;3.67;;
78995;SDS011;68401;47.192;-1.552;2023-05-07T06:35:40;5.07;;;3.63;;
78995;SDS011;68401;47.192;-1.552;2023-05-07T06:38:06;4.78;;;3.22;;
78995;SDS011;68401;47.192;-1.552;2023-05-07T06:40:31;7.53;;;2.80;;
78995;SDS011;68401;47.192;-1.552;2023-05-07T06:42:56;5.50;;;2.35;;
78995;SDS011;68401;47.192;-1.552;2023-05-07T06:45:22;4.10;;;2.10;;
78995;SDS011;68401;47.192;-1.552;2023-05-07T06:47:48;3.92;;;2.05;;
78995;SDS011;68401;47.192;-1.552;2023-05-07T06:50:14;5.05;;;1.70;;
78995;SDS011;68401;47.192;-1.552;2023-05-07T06:52:41;2.53;;;1.73;;
78995;SDS011;68401;47.192;-1.552;2023-05-07T06:55:07;3.00;;;1.67;;
78995;SDS011;68401;47.192;-1.552;2023-05-07T06:57:33;3.42;;;1.75;;
78995;SDS011;68401;47.192;-1.552;2023-05-07T06:59:59;3.33;;;1.83;;
78995;SDS011;68401;47.192;-1.552;2023-05-07T07:02:24;3.08;;;1.55;;
78995;SDS011;68401;47.192;-1.552;2023-05-07T07:04:50;6.47;;;1.80;;
78995;SDS011;68401;47.192;-1.552;2023-05-07T07:07:15;3.60;;;1.77;;
78995;SDS011;68401;47.192;-1.552;2023-05-07T07:09:40;3.05;;;2.05;;
78995;SDS011;68401;47.192;-1.552;2023-05-07T07:12:06;3.67;;;2.03;;
78995;SDS011;68401;47.192;-1.552;2023-05-07T07:14:31;6.32;;;2.05;;
78995;SDS011;68401;47.192;-1.552;2023-05-07T07:16:57;2.40;;;1.70;;
78995;SDS011;68401;47.192;-1.552;2023-05-07T07:19:22;2.88;;;1.80;;
78995;SDS011;68401;47.192;-1.552;2023-05-07T07:21:48;3.70;;;2.03;;
78995;SDS011;68401;47.192;-1.552;2023-05-07T07:24:14;4.68;;;2.40;;
78995;SDS011;68401;47.192;-1.552;2023-05-07T07:26:44;3.85;;;2.45;;
78995;SDS011;68401;47.192;-1.552;2023-05-07T07:29:09;5.20;;;2.58;;
78995;SDS011;68401;47.192;-1.552;2023-05-07T07:31:35;5.28;;;2.92;;
78995;SDS011;68401;47.192;-1.552;2023-05-07T07:34:00;4.43;;;2.72;;
78995;SDS011;68401;47.192;-1.552;2023-05-07T07:36:26;3.83;;;2.92;;
78995;SDS011;68401;47.192;-1.552;2023-05-07T07:38:52;5.15;;;3.92;;
78995;SDS011;68401;47.192;-1.552;2023-05-07T07:41:18;5.10;;;3.17;;
78995;SDS011;68401;47.192;-1.552;2023-05-07T07:43:43;3.88;;;2.83;;
78995;SDS011;68401;47.192;-1.552;2023-05-07T07:46:09;3.53;;;2.75;;
78995;SDS011;68401;47.192;-1.552;2023-05-07T07:48:35;4.22;;;3.03;;
78995;SDS011;68401;47.192;-1.552;2023-05-07T07:51:00;4.18;;;2.40;;
78995;SDS011;68401;47.192;-1.552;2023-05-07T07:53:25;3.97;;;2.83;;
78995;SDS011;68401;47.192;-1.552;2023-05-07T07:55:51;4.45;;;2.45;;
78995;SDS011;68401;47.192;-1.552;2023-05-07T07:58:16;3.65;;;2.20;;
78995;SDS011;68401;47.192;-1.552;2023-05-07T08:00:42;5.88;;;2.58;;
78995;SDS011;68401;47.192;-1.552;2023-05-07T08:03:11;4.47;;;2.47;;
78995;SDS011;68401;47.192;-1.552;2023-05-07T08:05:36;5.90;;;2.65;;
78995;SDS011;68401;47.192;-1.552;2023-05-07T08:08:03;4.00;;;2.60;;
78995;SDS011;68401;47.192;-1.552;2023-05-07T08:10:29;3.45;;;2.40;;
78995;SDS011;68401;47.192;-1.552;2023-05-07T08:12:54;3.40;;;2.55;;
78995;SDS011;68401;47.192;-1.552;2023-05-07T08:15:20;2.90;;;1.90;;
78995;SDS011;68401;47.192;-1.552;2023-05-07T08:17:45;4.05;;;2.80;;
78995;SDS011;68401;47.192;-1.552;2023-05-07T08:20:11;4.95;;;2.08;;
78995;SDS011;68401;47.192;-1.552;2023-05-07T08:22:36;3.80;;;2.60;;
78995;SDS011;68401;47.192;-1.552;2023-05-07T08:25:02;3.72;;;2.70;;
78995;SDS011;68401;47.192;-1.552;2023-05-07T08:27:28;3.17;;;2.08;;
78995;SDS011;68401;47.192;-1.552;2023-05-07T08:29:53;4.43;;;2.28;;
78995;SDS011;68401;47.192;-1.552;2023-05-07T08:32:19;2.30;;;1.80;;
78995;SDS011;68401;47.192;-1.552;2023-05-07T08:34:45;3.10;;;1.70;;
78995;SDS011;68401;47.192;-1.552;2023-05-07T08:37:11;2.50;;;1.67;;
78995;SDS011;68401;47.192;-1.552;2023-05-07T08:39:36;2.13;;;1.60;;
78995;SDS011;68401;47.192;-1.552;2023-05-07T08:42:02;3.83;;;1.90;;
78995;SDS011;68401;47.192;-1.552;2023-05-07T08:44:31;3.17;;;1.90;;
78995;SDS011;68401;47.192;-1.552;2023-05-07T08:47:00;2.83;;;1.73;;
78995;SDS011;68401;47.192;-1.552;2023-05-07T08:49:27;2.03;;;1.63;;
78995;SDS011;68401;47.192;-1.552;2023-05-07T08:51:52;2.42;;;1.95;;
78995;SDS011;68401;47.192;-1.552;2023-05-07T08:54:18;3.20;;;1.95;;
78995;SDS011;68401;47.192;-1.552;2023-05-07T08:56:44;2.50;;;1.80;;
78995;SDS011;68401;47.192;-1.552;2023-05-07T08:59:10;2.70;;;1.90;;
78995;SDS011;68401;47.192;-1.552;2023-05-07T09:01:35;3.20;;;1.90;;
78995;SDS011;68401;47.192;-1.552;2023-05-07T09:04:01;2.65;;;2.08;;
78995;SDS011;68401;47.192;-1.552;2023-05-07T09:06:27;3.72;;;2.55;;
78995;SDS011;68401;47.192;-1.552;2023-05-07T09:08:53;4.35;;;2.25;;
78995;SDS011;68401;47.192;-1.552;2023-05-07T09:11:22;3.20;;;2.65;;
78995;SDS011;68401;47.192;-1.552;2023-05-07T09:13:48;2.75;;;2.47;;
78995;SDS011;68401;47.192;-1.552;2023-05-07T09:16:18;10.63;;;9.00;;
78995;SDS011;68401;47.192;-1.552;2023-05-07T09:18:46;14.80;;;13.18;;
78995;SDS011;68401;47.192;-1.552;2023-05-07T09:21:16;5.30;;;3.67;;
78995;SDS011;68401;47.192;-1.552;2023-05-07T09:23:42;12.13;;;10.15;;
78995;SDS011;68401;47.192;-1.552;2023-05-07T09:26:07;10.65;;;9.57;;
78995;SDS011;68401;47.192;-1.552;2023-05-07T09:28:40;4.47;;;4.03;;
78995;SDS011;68401;47.192;-1.552;2023-05-07T09:31:06;4.65;;;4.05;;
78995;SDS011;68401;47.192;-1.552;2023-05-07T09:33:33;15.43;;;13.48;;
78995;SDS011;68401;47.192;-1.552;2023-05-07T09:35:58;6.95;;;5.60;;
78995;SDS011;68401;47.192;-1.552;2023-05-07T09:38:27;8.10;;;7.30;;
78995;SDS011;68401;47.192;-1.552;2023-05-07T09:43:31;6.40;;;5.68;;
78995;SDS011;68401;47.192;-1.552;2023-05-07T09:46:08;5.57;;;4.88;;
78995;SDS011;68401;47.192;-1.552;2023-05-07T09:48:37;4.68;;;3.88;;
78995;SDS011;68401;47.192;-1.552;2023-05-07T09:53:31;10.38;;;8.27;;
78995;SDS011;68401;47.192;-1.552;2023-05-07T09:55:58;2.92;;;2.60;;
78995;SDS011;68401;47.192;-1.552;2023-05-07T09:58:24;2.78;;;2.13;;
78995;SDS011;68401;47.192;-1.552;2023-05-07T10:00:51;4.05;;;2.92;;
78995;SDS011;68401;47.192;-1.552;2023-05-07T10:03:17;3.05;;;2.47;;
78995;SDS011;68401;47.192;-1.552;2023-05-07T10:05:44;3.83;;;2.10;;
78995;SDS011;68401;47.192;-1.552;2023-05-07T10:08:11;3.50;;;2.28;;
78995;SDS011;68401;47.192;-1.552;2023-05-07T10:10:36;2.60;;;2.38;;
78995;SDS011;68401;47.192;-1.552;2023-05-07T10:13:02;3.53;;;2.10;;
78995;SDS011;68401;47.192;-1.552;2023-05-07T10:15:30;2.78;;;2.40;;
78995;SDS011;68401;47.192;-1.552;2023-05-07T10:17:56;6.30;;;2.25;;
78995;SDS011;68401;47.192;-1.552;2023-05-07T10:20:22;2.42;;;2.05;;
78995;SDS011;68401;47.192;-1.552;2023-05-07T10:22:48;2.60;;;2.00;;
78995;SDS011;68401;47.192;-1.552;2023-05-07T10:25:16;2.55;;;2.03;;
78995;SDS011;68401;47.192;-1.552;2023-05-07T10:27:43;2.60;;;1.80;;
78995;SDS011;68401;47.192;-1.552;2023-05-07T10:32:47;3.15;;;2.20;;
78995;SDS011;68401;47.192;-1.552;2023-05-07T10:35:26;3.85;;;2.35;;
78995;SDS011;68401;47.192;-1.552;2023-05-07T10:37:55;2.60;;;2.20;;
78995;SDS011;68401;47.192;-1.552;2023-05-07T10:40:20;4.15;;;3.03;;
78995;SDS011;68401;47.192;-1.552;2023-05-07T10:42:56;4.68;;;2.90;;
78995;SDS011;68401;47.192;-1.552;2023-05-07T10:45:30;10.32;;;7.13;;
78995;SDS011;68401;47.192;-1.552;2023-05-07T10:48:06;14.13;;;10.23;;
78995;SDS011;68401;47.192;-1.552;2023-05-07T10:50:32;8.20;;;6.40;;
78995;SDS011;68401;47.192;-1.552;2023-05-07T10:55:42;2.67;;;1.90;;
78995;SDS011;68401;47.192;-1.552;2023-05-07T11:00:57;4.63;;;3.35;;
78995;SDS011;68401;47.192;-1.552;2023-05-07T11:03:24;13.80;;;10.38;;
78995;SDS011;68401;47.192;-1.552;2023-05-07T11:11:17;8.05;;;5.55;;
78995;SDS011;68401;47.192;-1.552;2023-05-07T11:13:45;23.52;;;18.75;;
78995;SDS011;68401;47.192;-1.552;2023-05-07T11:18:51;6.25;;;5.35;;
78995;SDS011;68401;47.192;-1.552;2023-05-07T11:24:02;5.72;;;4.40;;
78995;SDS011;68401;47.192;-1.552;2023-05-07T11:26:29;13.52;;;10.43;;
78995;SDS011;68401;47.192;-1.552;2023-05-07T11:28:57;7.72;;;4.18;;
78995;SDS011;68401;47.192;-1.552;2023-05-07T11:31:25;5.75;;;3.22;;
78995;SDS011;68401;47.192;-1.552;2023-05-07T11:33:53;5.15;;;3.10;;
78995;SDS011;68401;47.192;-1.552;2023-05-07T11:36:19;4.47;;;3.63;;
78995;SDS011;68401;47.192;-1.552;2023-05-07T11:38:45;7.93;;;5.78;;
78995;SDS011;68401;47.192;-1.552;2023-05-07T11:41:11;5.72;;;2.88;;
78995;SDS011;68401;47.192;-1.552;2023-05-07T11:43:36;11.88;;;9.18;;
78995;SDS011;68401;47.192;-1.552;2023-05-07T11:46:07;9.48;;;5.13;;
78995;SDS011;68401;47.192;-1.552;2023-05-07T11:48:33;3.08;;;2.03;;
78995;SDS011;68401;47.192;-1.552;2023-05-07T11:51:00;4.72;;;1.92;;
78995;SDS011;68401;47.192;-1.552;2023-05-07T11:53:27;4.18;;;2.25;;
78995;SDS011;68401;47.192;-1.552;2023-05-07T11:55:59;6.47;;;4.68;;
78995;SDS011;68401;47.192;-1.552;2023-05-07T11:58:25;6.82;;;5.03;;
78995;SDS011;68401;47.192;-1.552;2023-05-07T12:00:50;5.68;;;4.60;;
78995;SDS011;68401;47.192;-1.552;2023-05-07T12:03:16;3.72;;;1.90;;
78995;SDS011;68401;47.192;-1.552;2023-05-07T12:05:43;5.00;;;3.03;;
78995;SDS011;68401;47.192;-1.552;2023-05-07T12:08:13;3.60;;;1.70;;
78995;SDS011;68401;47.192;-1.552;2023-05-07T12:10:43;3.17;;;1.38;;
78995;SDS011;68401;47.192;-1.552;2023-05-07T12:13:19;2.10;;;1.50;;
78995;SDS011;68401;47.192;-1.552;2023-05-07T12:15:44;2.05;;;1.20;;
78995;SDS011;68401;47.192;-1.552;2023-05-07T12:18:13;2.92;;;1.38;;
78995;SDS011;68401;47.192;-1.552;2023-05-07T12:20:39;3.75;;;1.30;;
78995;SDS011;68401;47.192;-1.552;2023-05-07T12:23:04;1.95;;;1.45;;
78995;SDS011;68401;47.192;-1.552;2023-05-07T12:25:37;2.63;;;1.55;;
78995;SDS011;68401;47.192;-1.552;2023-05-07T12:28:03;2.05;;;1.30;;
78995;SDS011;68401;47.192;-1.552;2023-05-07T12:30:30;2.30;;;1.02;;
78995;SDS011;68401;47.192;-1.552;2023-05-07T12:32:57;2.20;;;1.27;;
78995;SDS011;68401;47.192;-1.552;2023-05-07T12:35:32;2.25;;;1.00;;
78995;SDS011;68401;47.192;-1.552;2023-05-07T12:38:01;1.77;;;0.95;;
78995;SDS011;68401;47.192;-1.552;2023-05-07T12:43:18;2.47;;;1.58;;
78995;SDS011;68401;47.192;-1.552;2023-05-07T12:45:45;1.08;;;0.98;;
78995;SDS011;68401;47.192;-1.552;2023-05-07T12:48:12;1.90;;;0.90;;
78995;SDS011;68401;47.192;-1.552;2023-05-07T12:50:37;1.20;;;1.00;;
78995;SDS011;68401;47.192;-1.552;2023-05-07T12:53:03;1.73;;;1.10;;
78995;SDS011;68401;47.192;-1.552;2023-05-07T12:55:39;2.30;;;1.10;;
78995;SDS011;68401;47.192;-1.552;2023-05-07T12:58:14;2.28;;;1.00;;
78995;SDS011;68401;47.192;-1.552;2023-05-07T13:00:41;2.28;;;1.20;;
78995;SDS011;68401;47.192;-1.552;2023-05-07T13:03:08;2.13;;;1.20;;
78995;SDS011;68401;47.192;-1.552;2023-05-07T13:05:33;2.65;;;1.20;;
78995;SDS011;68401;47.192;-1.552;2023-05-07T13:07:59;2.10;;;1.00;;
78995;SDS011;68401;47.192;-1.552;2023-05-07T13:10:25;3.00;;;1.30;;
78995;SDS011;68401;47.192;-1.552;2023-05-07T13:12:51;0.63;;;0.63;;
78995;SDS011;68401;47.192;-1.552;2023-05-07T13:15:17;1.20;;;0.80;;
78995;SDS011;68401;47.192;-1.552;2023-05-07T13:17:43;1.80;;;0.90;;
78995;SDS011;68401;47.192;-1.552;2023-05-07T13:20:09;1.65;;;1.10;;
78995;SDS011;68401;47.192;-1.552;2023-05-07T13:22:35;1.67;;;0.90;;
78995;SDS011;68401;47.192;-1.552;2023-05-07T13:25:01;2.45;;;1.10;;
78995;SDS011;68401;47.192;-1.552;2023-05-07T13:27:26;3.03;;;2.05;;
78995;SDS011;68401;47.192;-1.552;2023-05-07T13:29:52;6.57;;;4.53;;
78995;SDS011;68401;47.192;-1.552;2023-05-07T13:32:17;6.28;;;4.53;;
78995;SDS011;68401;47.192;-1.552;2023-05-07T13:34:43;1.70;;;1.20;;
78995;SDS011;68401;47.192;-1.552;2023-05-07T13:37:08;3.30;;;2.60;;
78995;SDS011;68401;47.192;-1.552;2023-05-07T13:39:34;2.22;;;1.10;;
78995;SDS011;68401;47.192;-1.552;2023-05-07T13:41:59;2.63;;;1.00;;
78995;SDS011;68401;47.192;-1.552;2023-05-07T13:44:25;2.75;;;1.55;;
78995;SDS011;68401;47.192;-1.552;2023-05-07T13:46:51;2.40;;;1.17;;
78995;SDS011;68401;47.192;-1.552;2023-05-07T13:49:16;2.15;;;1.30;;
78995;SDS011;68401;47.192;-1.552;2023-05-07T13:51:42;2.35;;;1.30;;
78995;SDS011;68401;47.192;-1.552;2023-05-07T13:54:07;2.53;;;1.35;;
78995;SDS011;68401;47.192;-1.552;2023-05-07T13:56:33;1.05;;;0.80;;
78995;SDS011;68401;47.192;-1.552;2023-05-07T13:58:59;1.88;;;1.10;;
78995;SDS011;68401;47.192;-1.552;2023-05-07T14:01:24;2.08;;;1.10;;
78995;SDS011;68401;47.192;-1.552;2023-05-07T14:03:50;2.20;;;1.30;;
78995;SDS011;68401;47.192;-1.552;2023-05-07T14:06:15;1.80;;;1.10;;
78995;SDS011;68401;47.192;-1.552;2023-05-07T14:08:40;1.55;;;0.90;;
78995;SDS011;68401;47.192;-1.552;2023-05-07T14:11:06;2.95;;;1.13;;
78995;SDS011;68401;47.192;-1.552;2023-05-07T14:13:31;1.20;;;0.93;;
78995;SDS011;68401;47.192;-1.552;2023-05-07T14:15:59;2.35;;;1.17;;
78995;SDS011;68401;47.192;-1.552;2023-05-07T14:18:25;1.52;;;0.93;;
78995;SDS011;68401;47.192;-1.552;2023-05-07T14:20:51;1.27;;;0.70;;
78995;SDS011;68401;47.192;-1.552;2023-05-07T14:23:16;2.15;;;0.93;;
78995;SDS011;68401;47.192;-1.552;2023-05-07T14:25:50;1.55;;;0.85;;
78995;SDS011;68401;47.192;-1.552;2023-05-07T14:28:16;1.65;;;1.00;;
78995;SDS011;68401;47.192;-1.552;2023-05-07T14:30:41;1.67;;;0.77;;
78995;SDS011;68401;47.192;-1.552;2023-05-07T14:33:07;1.23;;;0.88;;
78995;SDS011;68401;47.192;-1.552;2023-05-07T14:35:32;1.90;;;1.00;;
78995;SDS011;68401;47.192;-1.552;2023-05-07T14:37:57;1.67;;;0.95;;
78995;SDS011;68401;47.192;-1.552;2023-05-07T14:40:23;2.00;;;1.02;;
78995;SDS011;68401;47.192;-1.552;2023-05-07T14:42:48;1.55;;;1.00;;
78995;SDS011;68401;47.192;-1.552;2023-05-07T14:45:14;1.98;;;1.00;;
78995;SDS011;68401;47.192;-1.552;2023-05-07T14:47:39;1.60;;;1.08;;
78995;SDS011;68401;47.192;-1.552;2023-05-07T14:50:05;8.52;;;1.05;;
78995;SDS011;68401;47.192;-1.552;2023-05-07T14:52:30;1.77;;;1.00;;